Time;durP1;ratioP1;P1;durP2;ratioP2;P2;SDS_P1;SDS_P2;PMS_P1;PMS_P2;Temp;Humidity;BMP_temperature;BMP_pressure;BME280_temperature;BME280_humidity;BME280_pressure;Samples;Min_cycle;Max_cycle;Signal;HPM_P1;HPM_P2
2021/12/04 00:00:28;;;;;;;5.78;4.00;;;;;;;-1.50;77.69;97796.84;4911473;28;20039;-72
2021/12/04 00:02:53;;;;;;;6.45;4.35;;;;;;;-1.57;77.67;97802.44;4917398;28;20097;-72
2021/12/04 00:05:20;;;;;;;9.00;4.30;;;;;;;-1.68;78.22;97794.31;4931804;28;20050;-71
2021/12/04 00:07:45;;;;;;;8.15;4.07;;;;;;;-1.53;78.13;97791.78;4913673;28;20054;-74
2021/12/04 00:10:16;;;;;;;6.22;4.38;;;;;;;-1.72;78.52;97788.44;4925178;28;20042;-67
2021/12/04 00:12:42;;;;;;;4.80;3.50;;;;;;;-1.65;78.77;97792.41;4926577;28;20067;-69
2021/12/04 00:15:07;;;;;;;5.22;3.75;;;;;;;-1.55;79.02;97787.53;4893745;28;20101;-69
2021/12/04 00:17:32;;;;;;;4.90;3.40;;;;;;;-1.49;78.53;97789.84;4904828;28;20039;-69
2021/12/04 00:19:56;;;;;;;6.47;3.38;;;;;;;-1.52;78.40;97792.63;4925428;28;20135;-69
2021/12/04 00:22:21;;;;;;;4.07;3.30;;;;;;;-1.57;78.51;97799.84;4926531;28;20535;-69
2021/12/04 00:24:46;;;;;;;6.18;3.63;;;;;;;-1.74;78.32;97787.66;4925393;28;20043;-69
2021/12/04 00:27:11;;;;;;;4.57;3.47;;;;;;;-1.87;78.69;97782.22;4925586;28;20462;-69
2021/12/04 00:29:39;;;;;;;5.50;3.17;;;;;;;-1.74;78.66;97787.66;4925088;28;20489;-69
2021/12/04 00:34:54;;;;;;;4.90;3.55;;;;;;;-1.89;78.93;97793.66;4919702;28;20102;-73
2021/12/04 00:50:39;;;;;;;3.92;2.58;;;;;;;-1.79;78.71;97800.09;4918904;29;20039;-78
2021/12/04 00:53:04;;;;;;;4.65;3.40;;;;;;;-1.90;78.79;97813.72;4869181;29;20049;-76
2021/12/04 00:55:29;;;;;;;6.25;3.70;;;;;;;-1.96;78.32;97803.59;4902229;29;20043;-78
2021/12/04 00:57:54;;;;;;;7.70;2.95;;;;;;;-2.03;78.00;97796.97;4871536;29;20042;-77
2021/12/04 01:00:20;;;;;;;5.07;2.92;;;;;;;-2.13;77.63;97787.06;4901367;29;20047;-77
2021/12/04 01:02:44;;;;;;;4.68;3.10;;;;;;;-2.18;77.71;97791.69;4902571;29;20047;-79
2021/12/04 01:05:10;;;;;;;3.20;2.90;;;;;;;-2.24;77.79;97795.44;4904125;29;20170;-73
2021/12/04 01:07:34;;;;;;;3.67;2.65;;;;;;;-2.25;77.81;97791.97;4921388;29;20095;-78
2021/12/04 01:09:59;;;;;;;6.93;3.97;;;;;;;-2.31;78.14;97797.50;4919503;28;20069;-77
2021/12/04 01:12:24;;;;;;;7.13;3.70;;;;;;;-2.35;78.45;97797.72;4923729;29;20058;-73
2021/12/04 01:14:49;;;;;;;5.03;3.60;;;;;;;-2.36;78.49;97798.66;4878174;29;20102;-77
2021/12/04 01:17:14;;;;;;;4.47;3.33;;;;;;;-2.43;78.78;97794.66;4894377;29;20055;-78
2021/12/04 01:19:38;;;;;;;5.00;3.75;;;;;;;-2.42;78.75;97802.41;4908885;29;20047;-75
2021/12/04 01:22:05;;;;;;;3.83;3.20;;;;;;;-2.35;79.09;97790.75;4930242;29;20078;-79
2021/12/04 01:24:30;;;;;;;5.63;3.88;;;;;;;-2.47;78.70;97795.72;4913952;29;20098;-79
2021/12/04 01:26:55;;;;;;;5.82;3.70;;;;;;;-2.43;78.68;97789.44;4913675;29;20174;-79
2021/12/04 01:29:20;;;;;;;5.45;2.83;;;;;;;-2.44;78.44;97796.41;4913746;29;20099;-81
2021/12/04 01:31:45;;;;;;;7.35;4.05;;;;;;;-2.53;78.85;97801.25;4908487;29;20054;-79
2021/12/04 01:34:10;;;;;;;5.80;3.28;;;;;;;-2.44;78.75;97795.56;4910646;29;20106;-75
2021/12/04 01:36:35;;;;;;;5.22;3.35;;;;;;;-2.37;78.64;97805.63;4910025;29;20067;-76
2021/12/04 01:38:59;;;;;;;8.85;3.95;;;;;;;-2.53;78.67;97801.25;4912356;29;20056;-79
2021/12/04 01:41:25;;;;;;;5.95;3.92;;;;;;;-2.55;78.43;97803.94;4907770;29;20044;-68
2021/12/04 01:43:49;;;;;;;4.65;3.20;;;;;;;-2.58;78.89;97796.25;4885504;29;20044;-73
2021/12/04 01:46:14;;;;;;;10.60;3.30;;;;;;;-2.50;78.41;97803.72;4902776;29;20075;-73
2021/12/04 01:48:39;;;;;;;4.63;3.15;;;;;;;-2.47;78.46;97816.59;4887153;29;20080;-72
2021/12/04 01:51:05;;;;;;;6.15;3.35;;;;;;;-2.64;78.33;97804.38;4886540;29;20035;-71
2021/12/04 01:53:30;;;;;;;5.45;3.78;;;;;;;-2.70;78.36;97807.25;4870546;29;20499;-75
2021/12/04 01:55:57;;;;;;;6.38;3.70;;;;;;;-2.61;78.62;97809.44;4901136;29;20082;-72
2021/12/04 01:58:24;;;;;;;3.42;2.92;;;;;;;-2.58;78.34;97811.88;4912872;29;20047;-69
2021/12/04 02:00:49;;;;;;;6.70;4.00;;;;;;;-2.51;78.59;97809.84;4919419;29;20043;-67
2021/12/04 02:03:14;;;;;;;5.40;3.50;;;;;;;-2.55;77.98;97798.72;4918747;29;20042;-65
2021/12/04 02:05:41;;;;;;;5.03;4.10;;;;;;;-2.70;78.09;97802.88;4902963;29;20125;-66
2021/12/04 02:08:09;;;;;;;5.43;3.15;;;;;;;-2.63;78.46;97804.31;4903180;29;20129;-65
2021/12/04 02:10:35;;;;;;;5.45;3.58;;;;;;;-2.75;78.16;97801.44;4912197;28;20106;-70
2021/12/04 02:13:00;;;;;;;5.78;3.85;;;;;;;-2.71;78.63;97806.41;4900502;29;20521;-66
2021/12/04 02:15:26;;;;;;;6.65;4.55;;;;;;;-2.75;78.12;97812.72;4898641;29;20131;-69
2021/12/04 02:17:51;;;;;;;5.85;3.85;;;;;;;-2.72;78.48;97816.94;4902263;29;20043;-70
2021/12/04 02:20:18;;;;;;;5.93;4.50;;;;;;;-2.75;78.08;97823.16;4883973;29;20039;-67
2021/12/04 02:22:43;;;;;;;6.28;3.50;;;;;;;-2.80;78.38;97819.03;4898212;29;20495;-70
2021/12/04 02:25:09;;;;;;;6.18;3.60;;;;;;;-2.77;78.90;97821.53;4900580;29;20497;-73
2021/12/04 02:27:33;;;;;;;4.80;3.28;;;;;;;-2.84;78.62;97822.72;4899370;29;20135;-68
2021/12/04 02:29:58;;;;;;;5.55;3.78;;;;;;;-2.71;78.91;97818.63;4923029;28;20051;-71
2021/12/04 02:32:23;;;;;;;6.57;3.40;;;;;;;-2.68;78.72;97823.69;4937934;28;20508;-70
2021/12/04 02:34:48;;;;;;;5.53;3.50;;;;;;;-2.69;78.68;97817.63;4938124;28;20050;-69
2021/12/04 02:37:12;;;;;;;3.08;2.13;;;;;;;-2.62;78.47;97829.47;4938002;28;20133;-70
2021/12/04 02:39:42;;;;;;;7.53;3.80;;;;;;;-2.59;78.71;97820.63;4937686;28;20054;-69
2021/12/04 02:42:20;;;;;;;5.90;3.30;;;;;;;-2.62;78.55;97836.44;4920734;28;20047;-69
2021/12/04 02:44:45;;;;;;;5.63;3.78;;;;;;;-2.68;78.18;97829.75;4905690;28;20042;-76
2021/12/04 02:47:10;;;;;;;4.95;3.63;;;;;;;-2.73;78.73;97830.91;4939349;28;20182;-68
2021/12/04 02:49:35;;;;;;;6.68;4.65;;;;;;;-2.86;78.39;97843.66;4920988;28;20126;-70
2021/12/04 02:52:07;;;;;;;6.95;3.60;;;;;;;-2.78;78.23;97832.88;4939075;28;20047;-71
2021/12/04 02:54:33;;;;;;;4.55;3.40;;;;;;;-2.85;78.73;97826.25;4921742;28;20042;-70
2021/12/04 02:56:58;;;;;;;5.20;3.33;;;;;;;-2.87;78.59;97839.34;4938945;28;20050;-70
2021/12/04 02:59:24;;;;;;;8.52;4.38;;;;;;;-3.11;78.66;97836.13;4905362;28;20048;-70
2021/12/04 03:01:53;;;;;;;6.00;3.88;;;;;;;-3.10;78.74;97843.03;4921445;28;20042;-70
2021/12/04 03:04:18;;;;;;;4.20;3.25;;;;;;;-2.99;79.20;97839.91;4905208;28;20126;-71
2021/12/04 03:06:46;;;;;;;7.68;4.13;;;;;;;-3.10;78.91;97842.19;4938496;28;20049;-70
2021/12/04 03:09:11;;;;;;;6.20;3.80;;;;;;;-2.99;78.67;97845.13;4938316;28;20050;-67
2021/12/04 03:11:37;;;;;;;7.60;4.32;;;;;;;-3.07;78.96;97852.47;4905755;29;20054;-69
2021/12/04 03:14:02;;;;;;;4.85;2.95;;;;;;;-3.06;78.75;97861.97;4919728;29;20047;-67
2021/12/04 03:16:28;;;;;;;8.13;3.35;;;;;;;-3.03;78.59;97851.41;4920143;29;20050;-68
2021/12/04 03:18:52;;;;;;;3.53;3.10;;;;;;;-2.91;78.92;97863.88;4921902;29;20077;-68
2021/12/04 03:21:17;;;;;;;8.52;4.32;;;;;;;-2.95;78.61;97852.75;4913188;29;20046;-69
2021/12/04 03:23:52;;;;;;;6.00;3.47;;;;;;;-2.98;78.40;97858.09;4930421;29;20043;-72
2021/12/04 03:26:18;;;;;;;6.07;2.83;;;;;;;-2.90;78.61;97855.13;4928594;29;20494;-66
2021/12/04 03:28:42;;;;;;;7.22;3.67;;;;;;;-2.89;78.37;97845.56;4875013;29;20066;-67
2021/12/04 03:41:45;;;;;;;4.88;3.30;;;;;;;-2.93;78.66;97850.91;4919374;29;20406;-71
2021/12/04 03:44:10;;;;;;;8.18;3.53;;;;;;;-3.08;77.95;97850.78;4886598;29;20544;-69
2021/12/04 03:46:34;;;;;;;5.00;3.40;;;;;;;-3.06;78.70;97856.78;4920154;29;20051;-70
2021/12/04 03:48:59;;;;;;;4.18;3.28;;;;;;;-2.91;78.08;97853.44;4920144;29;20083;-69
2021/12/04 03:51:24;;;;;;;7.40;3.58;;;;;;;-2.94;78.48;97861.44;4886945;29;20049;-69
2021/12/04 03:53:49;;;;;;;3.65;2.88;;;;;;;-2.75;78.34;97849.22;4903235;29;20035;-71
2021/12/04 03:56:18;;;;;;;5.28;4.03;;;;;;;-2.74;77.99;97861.34;4888138;29;20054;-70
2021/12/04 03:58:42;;;;;;;4.43;3.05;;;;;;;-2.66;77.50;97860.97;4902619;29;20047;-70
2021/12/04 04:01:07;;;;;;;6.47;3.90;;;;;;;-2.65;77.59;97858.31;4918781;29;20101;-70
2021/12/04 04:03:32;;;;;;;6.63;3.72;;;;;;;-2.75;77.39;97856.19;4901318;29;20569;-70
2021/12/04 04:05:57;;;;;;;4.47;3.08;;;;;;;-2.61;77.43;97857.25;4918576;29;20058;-71
2021/12/04 04:08:21;;;;;;;5.55;3.90;;;;;;;-2.71;76.65;97853.34;4900965;29;20047;-70
2021/12/04 04:10:48;;;;;;;6.93;3.72;;;;;;;-2.55;77.10;97861.31;4918903;29;20050;-72
2021/12/04 04:13:13;;;;;;;6.70;3.80;;;;;;;-2.51;76.70;97867.25;4885769;29;20038;-70
2021/12/04 04:15:39;;;;;;;6.60;3.72;;;;;;;-2.33;76.72;97871.56;4918494;29;20054;-70
2021/12/04 04:18:05;;;;;;;13.52;3.70;;;;;;;-2.36;76.11;97871.72;4901959;29;20079;-71
2021/12/04 04:20:29;;;;;;;11.15;3.78;;;;;;;-2.38;76.09;97882.25;4902866;29;20039;-71
2021/12/04 04:22:54;;;;;;;4.90;3.42;;;;;;;-2.27;76.14;97881.72;4902417;29;20050;-72
2021/12/04 04:25:19;;;;;;;9.93;4.03;;;;;;;-2.32;76.41;97878.47;4901832;29;20070;-75
2021/12/04 11:43:15;;;;;;;5.00;2.60;;;;;;;-1.73;60.08;98425.91;4924177;28;20043;-74
2021/12/04 11:48:36;;;;;;;2.10;1.90;;;;;;;-1.80;59.59;98421.84;4904978;28;20038;-72
2021/12/04 11:51:02;;;;;;;3.53;2.15;;;;;;;-1.77;60.39;98425.19;4921097;28;20074;-77
2021/12/04 11:53:31;;;;;;;2.33;1.52;;;;;;;-1.79;59.60;98416.53;4905131;28;20421;-73
2021/12/04 11:55:56;;;;;;;2.40;1.73;;;;;;;-1.92;60.06;98420.59;4922027;28;20047;-78
2021/12/04 11:58:27;;;;;;;1.98;1.75;;;;;;;-2.23;58.51;98428.78;4940632;28;20051;-77
2021/12/04 12:00:58;;;;;;;7.53;2.38;;;;;;;-2.23;59.37;98439.22;4924510;28;20127;-78
2021/12/04 12:03:26;;;;;;;3.58;2.22;;;;;;;-2.20;59.91;98432.13;4922662;28;20098;-75
2021/12/04 12:05:57;;;;;;;2.65;1.48;;;;;;;-2.14;59.38;98444.09;4923916;28;20066;-74
2021/12/04 12:08:33;;;;;;;2.42;2.08;;;;;;;-2.21;58.69;98443.50;4904793;28;20049;-76
2021/12/04 12:11:08;;;;;;;5.53;2.33;;;;;;;-2.35;58.92;98455.38;4908169;28;20035;-75
2021/12/04 12:13:38;;;;;;;;;;;;;;;-2.22;59.07;98456.59;4942632;28;20043;-75
2021/12/04 12:16:31;;;;;;;3.92;2.28;;;;;;;-2.31;59.03;98446.53;4921786;28;19971;-74
2021/12/04 12:19:03;;;;;;;4.65;1.75;;;;;;;-2.35;59.44;98451.00;4933934;28;20053;-73
2021/12/04 12:21:57;;;;;;;2.35;1.50;;;;;;;-2.40;59.56;98452.09;4905203;28;20049;-75
2021/12/04 12:38:41;;;;;;;3.53;1.65;;;;;;;-2.44;61.03;98476.59;4918666;29;20082;-76
2021/12/04 12:41:09;;;;;;;4.00;2.25;;;;;;;-2.63;60.95;98479.06;4901612;29;20074;-74
2021/12/04 12:43:57;;;;;;;4.53;2.50;;;;;;;-2.61;60.92;98491.16;4926779;28;20082;-75
2021/12/04 12:46:53;;;;;;;1.70;1.60;;;;;;;-2.48;60.30;98480.25;4929423;28;20124;-74
2021/12/04 12:49:37;;;;;;;2.35;1.83;;;;;;;-2.48;61.20;98482.88;4897540;29;20474;-76
2021/12/04 12:52:18;;;;;;;4.88;1.63;;;;;;;-2.50;60.55;98484.69;4931042;28;20133;-73
2021/12/04 12:54:43;;;;;;;2.50;1.90;;;;;;;-2.53;60.36;98488.25;4921592;28;20045;-75
2021/12/04 12:57:10;;;;;;;3.83;2.28;;;;;;;-2.66;60.56;98487.84;4898286;28;20050;-74
2021/12/04 12:59:44;;;;;;;4.38;1.83;;;;;;;-2.59;61.01;98499.75;4925953;28;20563;-73
2021/12/04 13:13:34;;;;;;;3.13;2.15;;;;;;;-2.65;60.29;98507.81;4926953;28;20405;-73
2021/12/04 13:16:15;;;;;;;8.07;2.53;;;;;;;-2.65;61.08;98525.22;4923025;28;20110;-74
2021/12/04 13:18:40;;;;;;;8.55;2.80;;;;;;;-2.73;60.60;98517.69;4900911;29;20050;-74
2021/12/04 13:21:09;;;;;;;5.45;2.63;;;;;;;-2.81;60.24;98519.69;4910010;28;20051;-71
2021/12/04 13:23:36;;;;;;;4.93;2.30;;;;;;;-2.71;60.23;98533.28;4937003;28;20070;-72
2021/12/04 13:26:11;;;;;;;3.55;2.50;;;;;;;-2.78;60.07;98529.16;4937465;28;20050;-73
2021/12/04 13:28:43;;;;;;;5.70;2.45;;;;;;;-2.68;60.74;98535.75;4902503;29;20154;-75
2021/12/04 13:31:08;;;;;;;4.45;2.78;;;;;;;-2.72;59.76;98542.00;4867729;29;20047;-75
2021/12/04 13:33:36;;;;;;;6.25;3.10;;;;;;;-2.83;60.03;98534.56;4910717;29;20067;-73
2021/12/04 13:36:02;;;;;;;4.28;2.72;;;;;;;-2.75;60.23;98542.09;4917537;29;20476;-75
2021/12/04 13:38:27;;;;;;;4.78;2.72;;;;;;;-2.65;59.80;98543.47;4918314;29;20106;-75
2021/12/04 13:40:54;;;;;;;1.95;1.40;;;;;;;-2.65;59.65;98557.38;4918397;29;20047;-75
2021/12/04 13:43:19;;;;;;;4.50;2.85;;;;;;;-2.80;58.55;98552.69;4919205;28;20457;-73
2021/12/04 13:45:45;;;;;;;4.88;2.83;;;;;;;-2.78;59.35;98548.28;4917294;28;20070;-74
2021/12/04 13:48:09;;;;;;;1.95;1.67;;;;;;;-2.85;58.51;98562.44;4917285;28;20055;-73
2021/12/04 13:53:06;;;;;;;3.60;2.10;;;;;;;-2.96;58.47;98547.19;4915685;29;20139;-75
2021/12/04 13:55:36;;;;;;;2.70;2.17;;;;;;;-2.90;58.32;98566.97;4916023;29;20098;-75
2021/12/04 13:58:04;;;;;;;1.95;1.55;;;;;;;-2.81;58.64;98574.44;4916783;28;20054;-74
2021/12/04 14:00:29;;;;;;;3.78;2.90;;;;;;;-2.85;57.89;98570.28;4900200;29;20048;-75
2021/12/04 14:02:54;;;;;;;2.75;2.35;;;;;;;-2.82;58.36;98564.94;4898748;29;20047;-75
2021/12/04 14:05:22;;;;;;;2.08;1.70;;;;;;;-2.83;58.04;98559.78;4898343;29;20048;-71
2021/12/04 14:07:49;;;;;;;4.47;2.70;;;;;;;-2.95;57.49;98572.34;4896826;29;20074;-71
2021/12/04 14:10:31;;;;;;;4.07;1.98;;;;;;;-2.85;58.69;98567.66;4896898;29;20044;-73
2021/12/04 14:12:57;;;;;;;2.92;2.22;;;;;;;-2.81;59.01;98573.59;4905364;29;20134;-72
2021/12/04 14:15:24;;;;;;;2.53;2.10;;;;;;;-2.94;58.89;98574.06;4901589;29;20875;-72
2021/12/04 14:18:02;;;;;;;1.95;1.40;;;;;;;-2.80;58.87;98580.53;4905885;28;20126;-75
2021/12/04 14:20:30;;;;;;;2.25;2.08;;;;;;;-2.89;58.62;98581.69;4901819;29;20094;-75
2021/12/04 14:22:56;;;;;;;3.72;2.75;;;;;;;-2.86;59.31;98586.81;4903210;29;20047;-73
2021/12/04 14:25:23;;;;;;;2.83;2.10;;;;;;;-2.88;58.52;98579.94;4885674;29;20422;-74
2021/12/04 14:27:49;;;;;;;4.38;2.38;;;;;;;-2.92;58.56;98592.22;4901537;29;20071;-72
2021/12/04 14:30:17;;;;;;;4.10;2.30;;;;;;;-3.00;58.61;98591.66;4903627;29;20050;-73
2021/12/04 14:32:45;;;;;;;4.38;2.63;;;;;;;-3.02;58.23;98602.13;4911354;29;20513;-73
2021/12/04 14:35:15;;;;;;;3.17;1.98;;;;;;;-2.97;59.05;98600.22;4909726;29;20136;-75
2021/12/04 14:37:43;;;;;;;3.63;2.72;;;;;;;-3.09;58.73;98594.56;4911521;29;20873;-73
2021/12/04 14:40:14;;;;;;;4.32;2.47;;;;;;;-3.06;58.47;98594.47;4919564;28;20055;-72
2021/12/04 14:42:41;;;;;;;4.93;3.20;;;;;;;-2.99;58.64;98603.78;4903115;29;20043;-72
2021/12/04 14:45:13;;;;;;;14.20;7.35;;;;;;;-3.04;57.82;98605.69;4918248;29;20047;-74
2021/12/04 14:47:44;;;;;;;10.73;5.43;;;;;;;-3.01;58.15;98613.41;4902922;29;20054;-72
2021/12/04 14:50:11;;;;;;;6.68;3.65;;;;;;;-2.94;58.18;98617.53;4918193;29;20497;-72
2021/12/04 14:52:37;;;;;;;6.93;3.80;;;;;;;-2.90;58.55;98613.91;4918122;29;20055;-72
2021/12/04 14:55:33;;;;;;;14.23;4.55;;;;;;;-2.87;57.52;98613.81;4919409;28;20047;-73
2021/12/04 14:57:59;;;;;;;3.20;1.83;;;;;;;-2.86;58.80;98615.50;4864086;29;20055;-71
2021/12/04 15:00:28;;;;;;;5.38;2.75;;;;;;;-2.99;58.37;98616.81;4865952;29;20083;-74
2021/12/04 15:03:27;;;;;;;4.60;2.55;;;;;;;-2.96;58.76;98621.94;4845096;29;20912;-72
2021/12/04 15:05:57;;;;;;;5.38;3.35;;;;;;;-3.17;58.49;98627.88;4860640;29;20052;-77
2021/12/04 15:08:26;;;;;;;4.22;2.95;;;;;;;-3.23;58.07;98633.25;4865374;29;20407;-73
2021/12/04 15:11:00;;;;;;;3.45;2.67;;;;;;;-3.05;58.53;98633.50;4844750;29;20050;-72
2021/12/04 15:13:29;;;;;;;3.22;2.55;;;;;;;-3.03;59.36;98631.69;4860056;29;20052;-73
2021/12/04 15:15:58;;;;;;;6.10;2.47;;;;;;;-3.16;58.72;98643.44;4844328;29;20056;-74
2021/12/04 15:18:24;;;;;;;3.97;2.20;;;;;;;-3.18;59.10;98647.88;4828789;29;20044;-71
2021/12/04 15:21:03;;;;;;;4.65;2.63;;;;;;;-3.15;58.89;98646.88;4844552;29;20056;-73
2021/12/04 15:23:29;;;;;;;4.65;2.53;;;;;;;-3.09;59.60;98657.13;4813259;29;20770;-72
2021/12/04 15:25:56;;;;;;;5.15;2.10;;;;;;;-3.06;59.12;98657.03;4859710;29;20052;-73
2021/12/04 15:28:25;;;;;;;5.63;2.88;;;;;;;-3.16;58.90;98660.84;4843029;29;20049;-71
2021/12/04 15:30:55;;;;;;;4.30;2.65;;;;;;;-3.14;59.17;98659.03;4843068;29;20052;-76
2021/12/04 15:33:27;;;;;;;3.20;2.08;;;;;;;-3.11;59.15;98656.31;4847181;29;20849;-73
2021/12/04 15:35:54;;;;;;;5.05;3.42;;;;;;;-3.12;58.52;98659.84;4898243;29;20074;-72
2021/12/04 15:38:48;;;;;;;4.13;3.17;;;;;;;-3.05;58.42;98677.00;4897740;29;20046;-69
2021/12/04 15:47:14;;;;;;;3.17;2.38;;;;;;;-3.15;58.86;98665.13;4917688;28;20421;-68
2021/12/04 15:54:59;;;;;;;7.28;4.13;;;;;;;-3.46;59.66;98673.91;4916705;29;20043;-72
2021/12/04 15:57:25;;;;;;;4.25;3.05;;;;;;;-3.26;59.59;98682.88;4917981;28;20070;-73
2021/12/04 15:59:52;;;;;;;4.25;2.50;;;;;;;-3.22;59.89;98676.66;4916711;29;20050;-71
2021/12/04 16:02:19;;;;;;;4.72;3.13;;;;;;;-3.23;59.62;98681.03;4918354;28;20524;-73
2021/12/04 16:04:44;;;;;;;5.43;4.00;;;;;;;-3.32;60.13;98692.59;4897601;29;20119;-71
2021/12/04 16:07:09;;;;;;;5.50;3.47;;;;;;;-3.27;60.02;98695.03;4897684;29;20051;-73
2021/12/04 16:09:37;;;;;;;5.07;3.28;;;;;;;-3.41;60.03;98692.88;4881766;29;20201;-74
2021/12/04 16:12:05;;;;;;;4.30;3.30;;;;;;;-3.37;60.47;98694.47;4882158;29;20047;-76
2021/12/04 16:14:36;;;;;;;7.95;4.13;;;;;;;-3.57;60.40;98691.63;4882874;29;20082;-74
2021/12/04 16:17:03;;;;;;;7.95;3.47;;;;;;;-3.51;60.12;98701.88;4899318;29;20051;-72
2021/12/04 16:19:30;;;;;;;5.32;3.40;;;;;;;-3.57;59.96;98704.66;4897459;29;20415;-71
2021/12/04 16:21:59;;;;;;;5.85;3.13;;;;;;;-3.45;60.69;98701.69;4898757;29;20106;-72
2021/12/04 16:24:26;;;;;;;5.63;3.25;;;;;;;-3.56;60.33;98690.72;4897474;29;20093;-71
2021/12/04 16:26:55;;;;;;;4.63;3.20;;;;;;;-3.64;60.73;98694.47;4898426;29;20040;-71
2021/12/04 16:29:22;;;;;;;3.90;2.90;;;;;;;-3.73;60.15;98701.66;4915297;29;20051;-72
2021/12/04 16:40:08;;;;;;;5.22;3.17;;;;;;;-3.72;60.04;98711.16;4899810;28;19918;-71
2021/12/04 16:42:34;;;;;;;3.35;1.95;;;;;;;-3.66;60.83;98723.16;4916936;29;20457;-72
2021/12/04 16:44:58;;;;;;;5.93;3.35;;;;;;;-3.81;60.37;98723.59;4917428;29;20043;-71
2021/12/04 16:47:25;;;;;;;2.55;2.25;;;;;;;-3.82;60.70;98721.88;4917110;29;20047;-71
2021/12/04 16:49:50;;;;;;;2.90;1.92;;;;;;;-3.86;61.12;98722.88;4899882;29;20075;-69
2021/12/04 16:57:50;;;;;;;4.28;2.88;;;;;;;-4.08;61.30;98741.72;4917190;29;20054;-71
2021/12/04 17:00:19;;;;;;;5.53;3.35;;;;;;;-4.14;61.55;98739.25;4899754;29;20134;-71
2021/12/04 17:02:44;;;;;;;5.07;3.55;;;;;;;-4.28;62.10;98759.56;4917271;29;20039;-72
2021/12/04 17:05:09;;;;;;;6.85;4.43;;;;;;;-4.40;62.48;98757.28;4899692;29;20070;-73
2021/12/04 17:07:34;;;;;;;6.95;4.20;;;;;;;-4.50;62.75;98766.22;4916938;29;20094;-73
2021/12/04 17:10:00;;;;;;;11.82;4.80;;;;;;;-4.70;63.39;98758.94;4899732;29;20386;-74
2021/12/04 17:12:24;;;;;;;6.72;4.05;;;;;;;-4.66;62.98;98777.91;4900033;29;20418;-71
2021/12/04 17:14:50;;;;;;;6.65;4.07;;;;;;;-4.74;62.98;98775.50;4884586;29;20062;-72
2021/12/04 17:17:23;;;;;;;8.85;5.60;;;;;;;-4.91;64.03;98775.03;4899886;29;20098;-74
2021/12/04 17:19:48;;;;;;;7.65;4.43;;;;;;;-4.95;64.47;98779.44;4917250;29;20058;-71
2021/12/04 17:22:13;;;;;;;8.77;5.75;;;;;;;-4.96;64.08;98782.06;4917072;29;20043;-70
2021/12/04 17:24:38;;;;;;;5.30;3.95;;;;;;;-5.00;64.38;98783.91;4917044;29;20058;-68
2021/12/04 17:27:06;;;;;;;7.38;4.43;;;;;;;-5.07;64.30;98779.72;4916871;29;20047;-69
2021/12/04 17:29:31;;;;;;;8.68;5.13;;;;;;;-5.12;64.02;98784.19;4916730;29;20808;-70
2021/12/04 17:31:57;;;;;;;10.45;5.25;;;;;;;-5.27;64.89;98789.72;4910039;28;20559;-71
2021/12/04 17:34:22;;;;;;;9.35;4.80;;;;;;;-5.24;64.94;98790.50;4918630;28;20096;-71
2021/12/04 17:36:47;;;;;;;6.85;4.65;;;;;;;-5.24;65.00;98784.47;4936045;28;20101;-70
2021/12/04 17:39:16;;;;;;;6.63;4.95;;;;;;;-5.29;65.20;98783.69;4936068;28;20043;-68
2021/12/04 17:41:41;;;;;;;7.97;4.05;;;;;;;-5.35;65.09;98791.63;4918987;28;20050;-68
2021/12/04 17:44:09;;;;;;;8.10;5.20;;;;;;;-5.35;65.19;98791.63;4935994;28;20047;-70
2021/12/04 17:46:34;;;;;;;11.07;4.95;;;;;;;-5.45;65.68;98798.75;4902964;28;20057;-72
2021/12/04 17:49:00;;;;;;;9.00;5.22;;;;;;;-5.49;65.36;98794.50;4918502;28;20047;-70
2021/12/04 17:51:25;;;;;;;8.05;4.95;;;;;;;-5.58;65.57;98790.38;4918497;28;20459;-69
2021/12/04 17:53:53;;;;;;;9.70;5.50;;;;;;;-5.55;65.61;98794.66;4939084;28;20043;-71
2021/12/04 17:56:18;;;;;;;9.60;4.32;;;;;;;-5.58;65.71;98790.38;4922289;28;20418;-70
2021/12/04 17:58:42;;;;;;;9.05;4.82;;;;;;;-5.56;65.51;98793.78;4931211;28;20391;-69
2021/12/04 18:01:13;;;;;;;9.23;5.15;;;;;;;-5.58;65.56;98790.38;4912187;28;20050;-73
2021/12/04 18:03:38;;;;;;;9.90;5.93;;;;;;;-5.65;65.89;98783.59;4896917;28;20039;-70
2021/12/04 18:06:06;;;;;;;11.27;6.53;;;;;;;-5.76;66.40;98780.38;4911864;28;20051;-70
2021/12/04 18:08:33;;;;;;;7.22;4.63;;;;;;;-5.72;66.31;98782.00;4927414;28;20042;-72
2021/12/04 18:11:00;;;;;;;9.15;5.60;;;;;;;-5.84;66.72;98782.22;4914576;28;20051;-71
2021/12/04 18:13:29;;;;;;;10.20;4.93;;;;;;;-5.81;66.81;98782.19;4920949;28;20043;-69
2021/12/04 18:16:04;;;;;;;10.88;5.03;;;;;;;-5.77;67.02;98783.84;4903791;28;20510;-70
2021/12/04 18:18:33;;;;;;;7.50;5.13;;;;;;;-5.72;66.63;98792.38;4910244;28;20033;-70
2021/12/04 18:20:58;;;;;;;8.50;4.13;;;;;;;-5.72;66.47;98797.56;4913549;28;20058;-70
2021/12/04 18:23:24;;;;;;;9.75;4.63;;;;;;;-5.71;66.33;98799.28;4919334;28;20050;-73
2021/12/04 18:25:49;;;;;;;8.65;5.00;;;;;;;-5.77;67.03;98809.81;4874568;29;20043;-74
2021/12/04 18:28:14;;;;;;;8.05;5.05;;;;;;;-5.71;66.53;98803.63;4924716;28;20557;-74
2021/12/04 18:30:39;;;;;;;7.78;4.72;;;;;;;-5.65;66.89;98806.09;4902588;29;20641;-70
2021/12/04 18:33:06;;;;;;;11.57;5.68;;;;;;;-5.57;66.50;98810.25;4903595;29;20054;-74
2021/12/04 18:35:34;;;;;;;9.75;4.97;;;;;;;-5.40;66.40;98812.50;4910749;28;20086;-76
2021/12/04 18:38:01;;;;;;;8.48;4.80;;;;;;;-5.33;65.96;98810.63;4902969;29;20579;-75
2021/12/04 18:40:27;;;;;;;10.00;4.18;;;;;;;-5.30;65.69;98818.34;4903846;29;20130;-75
2021/12/04 18:42:52;;;;;;;9.50;4.50;;;;;;;-5.31;66.05;98814.06;4903649;29;20058;-76
2021/12/04 18:45:21;;;;;;;6.70;3.53;;;;;;;-5.31;66.27;98814.91;4920817;29;20054;-75
2021/12/04 18:47:46;;;;;;;9.25;4.78;;;;;;;-5.27;66.19;98815.69;4887497;29;20520;-76
2021/12/04 18:50:14;;;;;;;7.93;4.90;;;;;;;-5.10;65.92;98821.38;4904072;29;20078;-76
2021/12/04 18:52:39;;;;;;;7.57;4.38;;;;;;;-5.07;65.60;98818.69;4903568;29;20050;-75
2021/12/04 18:55:07;;;;;;;7.63;3.50;;;;;;;-4.99;65.09;98816.81;4903708;29;20043;-75
2021/12/04 18:57:33;;;;;;;5.07;3.58;;;;;;;-4.86;66.13;98817.38;4904276;28;20043;-74
2021/12/04 18:59:58;;;;;;;6.70;3.85;;;;;;;-4.82;65.41;98822.47;4907396;28;20042;-74
2021/12/04 19:02:24;;;;;;;8.52;4.18;;;;;;;-4.80;65.13;98822.44;4923082;28;20085;-75
2021/12/04 19:04:51;;;;;;;7.53;4.25;;;;;;;-4.77;64.71;98828.44;4948084;28;20073;-76
2021/12/04 19:07:17;;;;;;;7.28;4.78;;;;;;;-4.77;65.05;98818.03;4945193;28;20440;-75
2021/12/04 19:09:42;;;;;;;6.63;3.97;;;;;;;-4.68;64.94;98829.09;4945103;28;20049;-75
2021/12/04 19:12:07;;;;;;;6.90;4.22;;;;;;;-4.76;64.74;98839.69;4924233;28;20141;-77
2021/12/04 19:14:34;;;;;;;11.05;5.15;;;;;;;-4.77;65.21;98844.03;4922287;28;20042;-76
2021/12/04 19:17:00;;;;;;;7.78;4.00;;;;;;;-4.67;65.02;98843.81;4943510;28;20101;-74
2021/12/04 19:19:25;;;;;;;7.25;4.05;;;;;;;-4.57;64.80;98837.50;4922500;28;20039;-76
2021/12/04 19:21:50;;;;;;;7.45;3.90;;;;;;;-4.54;64.27;98845.25;4906220;28;20051;-75
2021/12/04 19:24:16;;;;;;;7.50;4.07;;;;;;;-4.47;64.64;98844.19;4939264;28;20078;-75
2021/12/04 19:26:42;;;;;;;5.82;3.97;;;;;;;-4.46;64.37;98835.50;4922094;28;20134;-76
2021/12/04 19:29:14;;;;;;;4.97;3.67;;;;;;;-4.38;64.21;98843.97;4921750;28;20133;-76
2021/12/04 19:31:41;;;;;;;7.38;4.10;;;;;;;-4.40;64.23;98846.59;4939586;28;20042;-76
2021/12/04 19:34:52;;;;;;;5.88;3.63;;;;;;;-4.40;64.32;98853.53;4940201;28;20046;-75
2021/12/04 19:50:46;;;;;;;7.40;4.63;;;;;;;-4.21;63.07;98848.75;4921309;28;20101;-73
2021/12/04 19:53:27;;;;;;;6.07;4.07;;;;;;;-4.14;63.36;98851.16;4939162;28;20054;-73
2021/12/04 19:56:00;;;;;;;7.30;3.80;;;;;;;-4.22;63.08;98857.47;4938779;28;20054;-71
2021/12/04 19:58:33;;;;;;;10.47;4.43;;;;;;;-4.25;63.06;98854.94;4920965;28;20038;-75
2021/12/04 20:01:41;;;;;;;6.18;4.03;;;;;;;-4.24;62.63;98854.91;4920848;28;20045;-76
2021/12/04 20:04:03;;;;;;;5.60;3.85;;;;;;;-4.20;63.09;98864.34;4908263;28;20130;-74
2021/12/04 20:06:43;;;;;;;10.52;4.43;;;;;;;-4.21;63.16;98862.63;4938203;28;20129;-75
2021/12/04 20:14:38;;;;;;;7.50;4.25;;;;;;;-4.05;62.64;98876.97;4937681;28;20504;-76
2021/12/04 20:17:04;;;;;;;12.35;4.60;;;;;;;-4.10;62.87;98871.03;4920729;28;20051;-74
2021/12/04 20:19:29;;;;;;;8.25;5.00;;;;;;;-4.04;63.14;98881.28;4918247;28;20406;-71
2021/12/04 20:21:58;;;;;;;8.10;4.57;;;;;;;-4.03;63.11;98880.38;4936587;28;20038;-71
2021/12/04 20:24:29;;;;;;;5.30;3.72;;;;;;;-4.02;63.25;98876.03;4920435;28;20042;-73
2021/12/04 20:27:02;;;;;;;7.32;4.20;;;;;;;-4.06;63.40;98877.00;4937014;28;20086;-72
2021/12/04 20:29:43;;;;;;;6.72;4.35;;;;;;;-4.08;63.14;98882.25;4916276;29;20058;-73
2021/12/04 20:32:56;;;;;;;10.95;5.00;;;;;;;-3.96;62.51;98877.63;4900388;29;20081;-75
2021/12/04 21:08:15;;;;;;;5.85;3.67;;;;;;;-3.37;64.31;98881.25;4844457;29;20427;-74